Aérodrome :
LOGIN :

S'inscrire | Disclaimer

   EN    FR    IT 

 










Légende :    VFR   VFR Marginal   IFR   IFR Intensif   IFR Très Intensif
Visi : 
Plafond : 
>= 8 km
>= 3000ft
5 à 8 km
1000 à 3000 ft
1500m à 5 km
500 à 1000 ft
800 à 1500m
200 à 500 ft
< 800m
< 200 ft
Symboles :   Orages  Brouillard  Fortes neiges  Fortes précipitations  Vent > 20 kt
SIGMETs :   Divers  Orages  Givrage  Turbulence  Onde Orograph.  Cendres Volcan.






- Altitude de l'aérodrome : 121 ft
- Code IATA : HUY


EGNJ - Humberside

DERNIER METAR :
  • 291020Z 27008KT 9999 -RA FEW033 SCT038 10/04 Q1002

METARs EXPIRÉS :
  • 290950Z 27008KT 9999 -RA SCT046 10/04 Q1003
  • 290920Z 27008KT 9999 -RA SCT033 10/05 Q1003
  • 290850Z 24007KT 9999 -RA SCT033 10/05 Q1002
  • 290820Z 24008KT 9999 -RA FEW012 BKN040 10/05 Q1003
  • 290750Z 23007KT 9999 BKN037 10/06 Q1002
  • 290720Z AUTO 24006KT 9999 BKN035/// 10/06 Q1002
  • 290650Z AUTO 24010KT 9999 BKN034/// OVC048/// 10/06 Q1002
  • 290620Z 25011KT 9999 FEW007 BKN039 10/07 Q1002
  • 290550Z 22014KT 9999 FEW010 BKN016 10/09 Q1002

TAF TAF EGNJ
Valide du 29 à 09h jusqu'au 29 à 18h UTC


290755Z 2909/2918 23009KT 9999 SCT030
ATIS : +44 1652 682 020



MET'MAP, la Météo Aéronautique d'un coup d'oeil ! - Copyright ORBIFLY Décembre 2007 - Disclaimer

ORBIFLY MET'MAP TEAM :

Programmation & Développement : Alexandra Zaïnal
Sur une idée originale de : Baudouin d'Aumeries
Soutien technique & logistique : Manuel Goepfert
Assistance : Marc-Olivier Méhu




SOURCES & CREDITS :

   NOAA